sensor_id;sensor_type;location;lat;lon;timestamp;P1;durP1;ratioP1;P2;durP2;ratioP2
2874;SDS011;1445;52.600;13.328;2023-04-06T00:02:11;8.25;;;4.70;;
2874;SDS011;1445;52.600;13.328;2023-04-06T00:04:37;7.15;;;4.35;;
2874;SDS011;1445;52.600;13.328;2023-04-06T00:07:02;6.70;;;4.60;;
2874;SDS011;1445;52.600;13.328;2023-04-06T00:09:27;5.63;;;4.70;;
2874;SDS011;1445;52.600;13.328;2023-04-06T00:11:53;8.10;;;4.90;;
2874;SDS011;1445;52.600;13.328;2023-04-06T00:14:18;6.65;;;4.65;;
2874;SDS011;1445;52.600;13.328;2023-04-06T00:16:44;8.10;;;5.03;;
2874;SDS011;1445;52.600;13.328;2023-04-06T00:19:10;8.07;;;5.15;;
2874;SDS011;1445;52.600;13.328;2023-04-06T00:21:35;6.88;;;5.25;;
2874;SDS011;1445;52.600;13.328;2023-04-06T00:24:00;7.38;;;4.65;;
2874;SDS011;1445;52.600;13.328;2023-04-06T00:26:26;7.38;;;4.55;;
2874;SDS011;1445;52.600;13.328;2023-04-06T00:28:51;5.97;;;4.80;;
2874;SDS011;1445;52.600;13.328;2023-04-06T00:31:17;6.60;;;4.80;;
2874;SDS011;1445;52.600;13.328;2023-04-06T00:33:43;7.82;;;5.20;;
2874;SDS011;1445;52.600;13.328;2023-04-06T00:36:08;7.95;;;4.97;;
2874;SDS011;1445;52.600;13.328;2023-04-06T00:38:33;7.20;;;4.45;;
2874;SDS011;1445;52.600;13.328;2023-04-06T00:40:59;7.78;;;4.40;;
2874;SDS011;1445;52.600;13.328;2023-04-06T00:43:25;5.53;;;4.50;;
2874;SDS011;1445;52.600;13.328;2023-04-06T00:45:51;7.57;;;4.50;;
2874;SDS011;1445;52.600;13.328;2023-04-06T00:48:16;8.38;;;5.20;;
2874;SDS011;1445;52.600;13.328;2023-04-06T00:50:42;6.47;;;4.45;;
2874;SDS011;1445;52.600;13.328;2023-04-06T00:53:07;7.80;;;4.78;;
2874;SDS011;1445;52.600;13.328;2023-04-06T00:55:32;6.35;;;5.00;;
2874;SDS011;1445;52.600;13.328;2023-04-06T00:58:00;8.20;;;4.90;;
2874;SDS011;1445;52.600;13.328;2023-04-06T01:00:26;9.23;;;5.00;;
2874;SDS011;1445;52.600;13.328;2023-04-06T01:02:52;10.07;;;4.88;;
2874;SDS011;1445;52.600;13.328;2023-04-06T01:05:18;8.38;;;4.88;;
2874;SDS011;1445;52.600;13.328;2023-04-06T01:07:43;8.38;;;5.10;;
2874;SDS011;1445;52.600;13.328;2023-04-06T01:10:09;7.47;;;4.70;;
2874;SDS011;1445;52.600;13.328;2023-04-06T01:12:35;7.43;;;4.45;;
2874;SDS011;1445;52.600;13.328;2023-04-06T01:15:02;7.35;;;4.40;;
2874;SDS011;1445;52.600;13.328;2023-04-06T01:17:29;8.27;;;5.00;;
2874;SDS011;1445;52.600;13.328;2023-04-06T01:19:54;7.03;;;4.82;;
2874;SDS011;1445;52.600;13.328;2023-04-06T01:22:20;8.20;;;4.70;;
2874;SDS011;1445;52.600;13.328;2023-04-06T01:24:45;7.65;;;4.70;;
2874;SDS011;1445;52.600;13.328;2023-04-06T01:27:11;7.65;;;4.50;;
2874;SDS011;1445;52.600;13.328;2023-04-06T01:29:38;7.95;;;4.80;;
2874;SDS011;1445;52.600;13.328;2023-04-06T01:32:06;7.20;;;4.25;;
2874;SDS011;1445;52.600;13.328;2023-04-06T01:34:33;9.73;;;4.72;;
2874;SDS011;1445;52.600;13.328;2023-04-06T01:36:58;7.15;;;4.32;;
2874;SDS011;1445;52.600;13.328;2023-04-06T01:39:24;6.63;;;4.57;;
2874;SDS011;1445;52.600;13.328;2023-04-06T01:41:51;7.78;;;4.40;;
2874;SDS011;1445;52.600;13.328;2023-04-06T01:44:16;6.55;;;4.15;;
2874;SDS011;1445;52.600;13.328;2023-04-06T01:46:43;6.65;;;3.95;;
2874;SDS011;1445;52.600;13.328;2023-04-06T01:49:08;7.22;;;4.28;;
2874;SDS011;1445;52.600;13.328;2023-04-06T01:51:33;7.82;;;4.60;;
2874;SDS011;1445;52.600;13.328;2023-04-06T01:53:59;7.55;;;4.05;;
2874;SDS011;1445;52.600;13.328;2023-04-06T01:56:25;7.15;;;4.45;;
2874;SDS011;1445;52.600;13.328;2023-04-06T01:58:50;5.47;;;3.90;;
2874;SDS011;1445;52.600;13.328;2023-04-06T02:01:16;7.13;;;4.10;;
2874;SDS011;1445;52.600;13.328;2023-04-06T02:03:41;6.15;;;3.95;;
2874;SDS011;1445;52.600;13.328;2023-04-06T02:06:07;7.03;;;4.15;;
2874;SDS011;1445;52.600;13.328;2023-04-06T02:08:32;5.68;;;4.22;;
2874;SDS011;1445;52.600;13.328;2023-04-06T02:10:58;9.70;;;4.95;;
2874;SDS011;1445;52.600;13.328;2023-04-06T02:13:23;6.47;;;4.30;;
2874;SDS011;1445;52.600;13.328;2023-04-06T02:15:50;6.30;;;4.07;;
2874;SDS011;1445;52.600;13.328;2023-04-06T02:18:16;7.53;;;4.47;;
2874;SDS011;1445;52.600;13.328;2023-04-06T02:20:43;6.80;;;4.38;;
2874;SDS011;1445;52.600;13.328;2023-04-06T02:23:09;6.55;;;4.22;;
2874;SDS011;1445;52.600;13.328;2023-04-06T02:25:34;8.68;;;4.82;;
2874;SDS011;1445;52.600;13.328;2023-04-06T02:28:00;7.53;;;4.28;;
2874;SDS011;1445;52.600;13.328;2023-04-06T02:30:26;6.50;;;4.22;;
2874;SDS011;1445;52.600;13.328;2023-04-06T02:32:51;6.03;;;4.05;;
2874;SDS011;1445;52.600;13.328;2023-04-06T02:35:17;6.63;;;4.22;;
2874;SDS011;1445;52.600;13.328;2023-04-06T02:37:43;5.63;;;4.15;;
2874;SDS011;1445;52.600;13.328;2023-04-06T02:40:08;9.80;;;4.75;;
2874;SDS011;1445;52.600;13.328;2023-04-06T02:42:34;6.93;;;4.60;;
2874;SDS011;1445;52.600;13.328;2023-04-06T02:45:00;7.07;;;4.88;;
2874;SDS011;1445;52.600;13.328;2023-04-06T02:47:25;6.82;;;4.55;;
2874;SDS011;1445;52.600;13.328;2023-04-06T02:49:51;8.73;;;4.88;;
2874;SDS011;1445;52.600;13.328;2023-04-06T02:52:16;6.15;;;4.65;;
2874;SDS011;1445;52.600;13.328;2023-04-06T02:54:43;6.40;;;4.68;;
2874;SDS011;1445;52.600;13.328;2023-04-06T02:57:08;6.38;;;4.32;;
2874;SDS011;1445;52.600;13.328;2023-04-06T02:59:34;6.95;;;4.53;;
2874;SDS011;1445;52.600;13.328;2023-04-06T03:01:59;7.90;;;5.45;;
2874;SDS011;1445;52.600;13.328;2023-04-06T03:04:25;7.25;;;4.82;;
2874;SDS011;1445;52.600;13.328;2023-04-06T03:06:51;9.15;;;4.80;;
2874;SDS011;1445;52.600;13.328;2023-04-06T03:09:16;6.10;;;4.43;;
2874;SDS011;1445;52.600;13.328;2023-04-06T03:11:42;7.47;;;5.03;;
2874;SDS011;1445;52.600;13.328;2023-04-06T03:14:07;7.15;;;4.95;;
2874;SDS011;1445;52.600;13.328;2023-04-06T03:16:33;6.80;;;4.68;;
2874;SDS011;1445;52.600;13.328;2023-04-06T03:18:58;6.95;;;4.78;;
2874;SDS011;1445;52.600;13.328;2023-04-06T03:21:23;8.48;;;5.10;;
2874;SDS011;1445;52.600;13.328;2023-04-06T03:23:49;8.10;;;4.88;;
2874;SDS011;1445;52.600;13.328;2023-04-06T03:26:16;7.07;;;5.20;;
2874;SDS011;1445;52.600;13.328;2023-04-06T03:28:41;7.85;;;5.15;;
2874;SDS011;1445;52.600;13.328;2023-04-06T03:31:07;7.32;;;5.20;;
2874;SDS011;1445;52.600;13.328;2023-04-06T03:33:32;8.45;;;5.32;;
2874;SDS011;1445;52.600;13.328;2023-04-06T03:35:58;8.88;;;5.43;;
2874;SDS011;1445;52.600;13.328;2023-04-06T03:38:23;9.63;;;5.70;;
2874;SDS011;1445;52.600;13.328;2023-04-06T03:40:49;8.55;;;5.53;;
2874;SDS011;1445;52.600;13.328;2023-04-06T03:43:14;8.25;;;5.47;;
2874;SDS011;1445;52.600;13.328;2023-04-06T03:45:40;8.93;;;5.20;;
2874;SDS011;1445;52.600;13.328;2023-04-06T03:48:05;8.23;;;6.28;;
2874;SDS011;1445;52.600;13.328;2023-04-06T03:50:31;8.77;;;5.45;;
2874;SDS011;1445;52.600;13.328;2023-04-06T03:52:56;8.27;;;5.53;;
2874;SDS011;1445;52.600;13.328;2023-04-06T03:55:22;10.02;;;5.75;;
2874;SDS011;1445;52.600;13.328;2023-04-06T03:57:47;10.27;;;5.55;;
2874;SDS011;1445;52.600;13.328;2023-04-06T04:00:13;8.40;;;5.95;;
2874;SDS011;1445;52.600;13.328;2023-04-06T04:02:39;8.27;;;5.95;;
2874;SDS011;1445;52.600;13.328;2023-04-06T04:05:04;8.90;;;5.72;;
2874;SDS011;1445;52.600;13.328;2023-04-06T04:07:30;8.82;;;5.70;;
2874;SDS011;1445;52.600;13.328;2023-04-06T04:09:56;10.55;;;6.07;;
2874;SDS011;1445;52.600;13.328;2023-04-06T04:12:22;8.88;;;5.68;;
2874;SDS011;1445;52.600;13.328;2023-04-06T04:14:47;8.63;;;5.60;;
2874;SDS011;1445;52.600;13.328;2023-04-06T04:17:13;11.68;;;5.55;;
2874;SDS011;1445;52.600;13.328;2023-04-06T04:19:38;10.20;;;6.40;;
2874;SDS011;1445;52.600;13.328;2023-04-06T04:22:03;8.20;;;5.55;;
2874;SDS011;1445;52.600;13.328;2023-04-06T04:24:32;10.52;;;6.45;;
2874;SDS011;1445;52.600;13.328;2023-04-06T04:26:58;10.10;;;6.50;;
2874;SDS011;1445;52.600;13.328;2023-04-06T04:29:25;10.65;;;5.85;;
2874;SDS011;1445;52.600;13.328;2023-04-06T04:31:51;8.10;;;6.30;;
2874;SDS011;1445;52.600;13.328;2023-04-06T04:34:17;11.27;;;6.43;;
2874;SDS011;1445;52.600;13.328;2023-04-06T04:36:45;10.68;;;6.28;;
2874;SDS011;1445;52.600;13.328;2023-04-06T04:39:10;11.18;;;6.45;;
2874;SDS011;1445;52.600;13.328;2023-04-06T04:41:35;8.75;;;6.43;;
2874;SDS011;1445;52.600;13.328;2023-04-06T04:44:01;11.70;;;7.13;;
2874;SDS011;1445;52.600;13.328;2023-04-06T04:46:27;10.18;;;7.57;;
2874;SDS011;1445;52.600;13.328;2023-04-06T04:48:52;12.95;;;7.47;;
2874;SDS011;1445;52.600;13.328;2023-04-06T04:51:18;10.32;;;7.05;;
2874;SDS011;1445;52.600;13.328;2023-04-06T04:53:44;8.68;;;6.95;;
2874;SDS011;1445;52.600;13.328;2023-04-06T04:56:10;10.20;;;6.75;;
2874;SDS011;1445;52.600;13.328;2023-04-06T04:58:35;8.88;;;6.70;;
2874;SDS011;1445;52.600;13.328;2023-04-06T05:01:01;12.02;;;7.30;;
2874;SDS011;1445;52.600;13.328;2023-04-06T05:03:32;13.48;;;7.43;;
2874;SDS011;1445;52.600;13.328;2023-04-06T05:05:58;12.43;;;7.10;;
2874;SDS011;1445;52.600;13.328;2023-04-06T05:08:23;10.32;;;7.30;;
2874;SDS011;1445;52.600;13.328;2023-04-06T05:10:49;11.85;;;8.07;;
2874;SDS011;1445;52.600;13.328;2023-04-06T05:13:14;15.05;;;8.52;;
2874;SDS011;1445;52.600;13.328;2023-04-06T05:15:40;13.93;;;8.35;;
2874;SDS011;1445;52.600;13.328;2023-04-06T05:18:06;12.32;;;7.75;;
2874;SDS011;1445;52.600;13.328;2023-04-06T05:20:33;14.07;;;8.30;;
2874;SDS011;1445;52.600;13.328;2023-04-06T05:22:59;15.52;;;10.23;;
2874;SDS011;1445;52.600;13.328;2023-04-06T05:25:25;14.93;;;9.00;;
2874;SDS011;1445;52.600;13.328;2023-04-06T05:27:51;16.25;;;9.68;;
2874;SDS011;1445;52.600;13.328;2023-04-06T05:30:16;13.35;;;8.82;;
2874;SDS011;1445;52.600;13.328;2023-04-06T05:32:42;16.45;;;9.68;;
2874;SDS011;1445;52.600;13.328;2023-04-06T05:35:09;15.18;;;9.70;;
2874;SDS011;1445;52.600;13.328;2023-04-06T05:37:35;13.50;;;9.27;;
2874;SDS011;1445;52.600;13.328;2023-04-06T05:40:00;14.55;;;9.77;;
2874;SDS011;1445;52.600;13.328;2023-04-06T05:42:26;15.02;;;9.32;;
2874;SDS011;1445;52.600;13.328;2023-04-06T05:44:52;14.68;;;8.98;;
2874;SDS011;1445;52.600;13.328;2023-04-06T05:47:17;14.45;;;9.70;;
2874;SDS011;1445;52.600;13.328;2023-04-06T05:49:43;11.63;;;8.43;;
2874;SDS011;1445;52.600;13.328;2023-04-06T05:52:08;14.50;;;8.77;;
2874;SDS011;1445;52.600;13.328;2023-04-06T05:54:35;17.48;;;9.20;;
2874;SDS011;1445;52.600;13.328;2023-04-06T05:57:01;16.20;;;9.25;;
2874;SDS011;1445;52.600;13.328;2023-04-06T05:59:28;11.52;;;8.60;;
2874;SDS011;1445;52.600;13.328;2023-04-06T06:01:55;12.93;;;9.30;;
2874;SDS011;1445;52.600;13.328;2023-04-06T06:04:20;17.45;;;9.50;;
2874;SDS011;1445;52.600;13.328;2023-04-06T06:06:45;20.70;;;10.20;;
2874;SDS011;1445;52.600;13.328;2023-04-06T06:09:11;15.20;;;8.80;;
2874;SDS011;1445;52.600;13.328;2023-04-06T06:11:36;14.18;;;8.98;;
2874;SDS011;1445;52.600;13.328;2023-04-06T06:14:02;14.48;;;9.38;;
2874;SDS011;1445;52.600;13.328;2023-04-06T06:16:27;15.75;;;8.05;;
2874;SDS011;1445;52.600;13.328;2023-04-06T06:18:53;12.65;;;8.75;;
2874;SDS011;1445;52.600;13.328;2023-04-06T06:21:18;13.07;;;8.80;;
2874;SDS011;1445;52.600;13.328;2023-04-06T06:23:43;15.82;;;8.95;;
2874;SDS011;1445;52.600;13.328;2023-04-06T06:26:09;12.35;;;8.68;;
2874;SDS011;1445;52.600;13.328;2023-04-06T06:28:34;10.20;;;7.78;;
2874;SDS011;1445;52.600;13.328;2023-04-06T06:31:00;13.85;;;9.10;;
2874;SDS011;1445;52.600;13.328;2023-04-06T06:33:26;10.55;;;8.05;;
2874;SDS011;1445;52.600;13.328;2023-04-06T06:35:54;13.60;;;8.10;;
2874;SDS011;1445;52.600;13.328;2023-04-06T06:38:20;12.35;;;8.52;;
2874;SDS011;1445;52.600;13.328;2023-04-06T06:40:45;11.82;;;8.20;;
2874;SDS011;1445;52.600;13.328;2023-04-06T06:43:11;11.50;;;7.40;;
2874;SDS011;1445;52.600;13.328;2023-04-06T06:45:37;10.15;;;7.15;;
2874;SDS011;1445;52.600;13.328;2023-04-06T06:48:02;10.43;;;6.38;;
2874;SDS011;1445;52.600;13.328;2023-04-06T06:50:28;12.73;;;7.28;;
2874;SDS011;1445;52.600;13.328;2023-04-06T06:52:53;11.38;;;7.30;;
2874;SDS011;1445;52.600;13.328;2023-04-06T06:55:18;8.52;;;6.55;;
2874;SDS011;1445;52.600;13.328;2023-04-06T06:57:44;9.65;;;6.25;;
2874;SDS011;1445;52.600;13.328;2023-04-06T07:00:11;9.80;;;6.05;;
2874;SDS011;1445;52.600;13.328;2023-04-06T07:02:39;11.98;;;6.50;;
2874;SDS011;1445;52.600;13.328;2023-04-06T07:05:05;9.95;;;6.43;;
2874;SDS011;1445;52.600;13.328;2023-04-06T07:07:34;8.85;;;6.10;;
2874;SDS011;1445;52.600;13.328;2023-04-06T07:10:00;8.35;;;6.30;;
2874;SDS011;1445;52.600;13.328;2023-04-06T07:12:25;8.20;;;5.95;;
2874;SDS011;1445;52.600;13.328;2023-04-06T07:14:51;8.80;;;6.63;;
2874;SDS011;1445;52.600;13.328;2023-04-06T07:17:17;7.45;;;5.70;;
2874;SDS011;1445;52.600;13.328;2023-04-06T07:19:42;7.57;;;5.68;;
2874;SDS011;1445;52.600;13.328;2023-04-06T07:22:08;8.70;;;5.32;;
2874;SDS011;1445;52.600;13.328;2023-04-06T07:24:33;9.32;;;5.70;;
2874;SDS011;1445;52.600;13.328;2023-04-06T07:26:58;10.93;;;5.47;;
2874;SDS011;1445;52.600;13.328;2023-04-06T07:29:33;5.88;;;5.13;;
2874;SDS011;1445;52.600;13.328;2023-04-06T07:31:58;8.73;;;5.20;;
2874;SDS011;1445;52.600;13.328;2023-04-06T07:34:24;9.93;;;5.20;;
2874;SDS011;1445;52.600;13.328;2023-04-06T07:36:49;11.30;;;5.38;;
2874;SDS011;1445;52.600;13.328;2023-04-06T07:39:17;7.53;;;4.85;;
2874;SDS011;1445;52.600;13.328;2023-04-06T07:41:43;9.20;;;4.90;;
2874;SDS011;1445;52.600;13.328;2023-04-06T07:44:08;9.93;;;5.30;;
2874;SDS011;1445;52.600;13.328;2023-04-06T07:46:34;9.90;;;4.57;;
2874;SDS011;1445;52.600;13.328;2023-04-06T07:49:00;10.30;;;4.60;;
2874;SDS011;1445;52.600;13.328;2023-04-06T07:51:27;8.00;;;4.65;;
2874;SDS011;1445;52.600;13.328;2023-04-06T07:53:52;5.25;;;3.92;;
2874;SDS011;1445;52.600;13.328;2023-04-06T07:56:17;6.57;;;4.30;;
2874;SDS011;1445;52.600;13.328;2023-04-06T07:58:43;6.85;;;4.13;;
2874;SDS011;1445;52.600;13.328;2023-04-06T08:01:09;6.60;;;4.15;;
2874;SDS011;1445;52.600;13.328;2023-04-06T08:03:35;5.13;;;3.45;;
2874;SDS011;1445;52.600;13.328;2023-04-06T08:06:00;4.57;;;3.30;;
2874;SDS011;1445;52.600;13.328;2023-04-06T08:08:27;5.40;;;3.40;;
2874;SDS011;1445;52.600;13.328;2023-04-06T08:10:53;6.20;;;3.85;;
2874;SDS011;1445;52.600;13.328;2023-04-06T08:13:18;6.07;;;3.67;;
2874;SDS011;1445;52.600;13.328;2023-04-06T08:15:44;6.72;;;3.95;;
2874;SDS011;1445;52.600;13.328;2023-04-06T08:18:10;5.70;;;4.05;;
2874;SDS011;1445;52.600;13.328;2023-04-06T08:20:36;7.80;;;4.00;;
2874;SDS011;1445;52.600;13.328;2023-04-06T08:23:01;5.80;;;4.10;;
2874;SDS011;1445;52.600;13.328;2023-04-06T08:25:27;6.15;;;3.88;;
2874;SDS011;1445;52.600;13.328;2023-04-06T08:27:52;5.60;;;3.83;;
2874;SDS011;1445;52.600;13.328;2023-04-06T08:30:18;6.30;;;3.95;;
2874;SDS011;1445;52.600;13.328;2023-04-06T08:32:44;6.95;;;3.28;;
2874;SDS011;1445;52.600;13.328;2023-04-06T08:35:11;6.70;;;3.50;;
2874;SDS011;1445;52.600;13.328;2023-04-06T08:37:37;6.25;;;3.80;;
2874;SDS011;1445;52.600;13.328;2023-04-06T08:40:02;5.40;;;3.30;;
2874;SDS011;1445;52.600;13.328;2023-04-06T08:42:28;5.20;;;3.33;;
2874;SDS011;1445;52.600;13.328;2023-04-06T08:44:57;6.47;;;3.40;;
2874;SDS011;1445;52.600;13.328;2023-04-06T08:47:24;6.97;;;3.25;;
2874;SDS011;1445;52.600;13.328;2023-04-06T08:49:49;4.75;;;3.33;;
2874;SDS011;1445;52.600;13.328;2023-04-06T08:52:17;6.82;;;3.90;;
2874;SDS011;1445;52.600;13.328;2023-04-06T08:54:44;6.32;;;4.03;;
2874;SDS011;1445;52.600;13.328;2023-04-06T08:57:09;4.75;;;3.10;;
2874;SDS011;1445;52.600;13.328;2023-04-06T08:59:35;4.93;;;3.28;;
2874;SDS011;1445;52.600;13.328;2023-04-06T09:02:03;4.50;;;3.00;;
2874;SDS011;1445;52.600;13.328;2023-04-06T09:04:30;5.35;;;3.15;;
2874;SDS011;1445;52.600;13.328;2023-04-06T09:06:57;5.45;;;3.30;;
2874;SDS011;1445;52.600;13.328;2023-04-06T09:09:22;3.50;;;2.53;;
2874;SDS011;1445;52.600;13.328;2023-04-06T09:11:50;3.70;;;2.53;;
2874;SDS011;1445;52.600;13.328;2023-04-06T09:14:17;5.63;;;2.70;;
2874;SDS011;1445;52.600;13.328;2023-04-06T09:16:58;5.03;;;2.50;;
2874;SDS011;1445;52.600;13.328;2023-04-06T09:19:24;5.53;;;3.30;;
2874;SDS011;1445;52.600;13.328;2023-04-06T09:21:49;6.18;;;3.05;;
2874;SDS011;1445;52.600;13.328;2023-04-06T09:24:14;3.35;;;2.50;;
2874;SDS011;1445;52.600;13.328;2023-04-06T09:26:46;3.95;;;2.70;;
2874;SDS011;1445;52.600;13.328;2023-04-06T09:29:21;5.63;;;3.25;;
2874;SDS011;1445;52.600;13.328;2023-04-06T09:31:48;7.20;;;3.28;;
2874;SDS011;1445;52.600;13.328;2023-04-06T09:34:21;4.22;;;2.85;;
2874;SDS011;1445;52.600;13.328;2023-04-06T09:36:48;3.25;;;2.35;;
2874;SDS011;1445;52.600;13.328;2023-04-06T09:39:14;4.95;;;2.88;;
2874;SDS011;1445;52.600;13.328;2023-04-06T09:41:40;4.00;;;2.70;;
2874;SDS011;1445;52.600;13.328;2023-04-06T09:44:06;3.97;;;2.60;;
2874;SDS011;1445;52.600;13.328;2023-04-06T09:46:39;3.95;;;2.25;;
2874;SDS011;1445;52.600;13.328;2023-04-06T09:49:07;3.08;;;1.90;;
2874;SDS011;1445;52.600;13.328;2023-04-06T09:51:40;5.20;;;2.42;;
2874;SDS011;1445;52.600;13.328;2023-04-06T09:54:06;4.38;;;2.40;;
2874;SDS011;1445;52.600;13.328;2023-04-06T09:56:46;4.88;;;2.55;;
2874;SDS011;1445;52.600;13.328;2023-04-06T09:59:14;3.38;;;2.50;;
2874;SDS011;1445;52.600;13.328;2023-04-06T10:01:53;3.53;;;2.05;;
2874;SDS011;1445;52.600;13.328;2023-04-06T10:04:25;2.83;;;2.10;;
2874;SDS011;1445;52.600;13.328;2023-04-06T10:07:01;4.15;;;2.00;;
2874;SDS011;1445;52.600;13.328;2023-04-06T10:09:28;3.25;;;1.95;;
2874;SDS011;1445;52.600;13.328;2023-04-06T10:12:00;2.67;;;1.95;;
2874;SDS011;1445;52.600;13.328;2023-04-06T10:14:28;2.63;;;1.75;;
2874;SDS011;1445;52.600;13.328;2023-04-06T10:16:53;2.75;;;1.92;;
2874;SDS011;1445;52.600;13.328;2023-04-06T10:19:22;3.70;;;1.92;;
2874;SDS011;1445;52.600;13.328;2023-04-06T10:24:19;4.53;;;1.90;;
2874;SDS011;1445;52.600;13.328;2023-04-06T10:26:58;3.60;;;1.88;;
2874;SDS011;1445;52.600;13.328;2023-04-06T10:29:27;2.60;;;1.80;;
2874;SDS011;1445;52.600;13.328;2023-04-06T10:31:52;2.75;;;1.92;;
2874;SDS011;1445;52.600;13.328;2023-04-06T10:34:18;3.95;;;2.00;;
2874;SDS011;1445;52.600;13.328;2023-04-06T10:36:43;4.25;;;2.08;;
2874;SDS011;1445;52.600;13.328;2023-04-06T10:39:11;2.90;;;1.85;;
2874;SDS011;1445;52.600;13.328;2023-04-06T10:41:43;3.30;;;1.70;;
2874;SDS011;1445;52.600;13.328;2023-04-06T10:44:25;2.72;;;1.90;;
2874;SDS011;1445;52.600;13.328;2023-04-06T10:46:57;2.65;;;1.63;;
2874;SDS011;1445;52.600;13.328;2023-04-06T10:49:25;4.20;;;2.20;;
2874;SDS011;1445;52.600;13.328;2023-04-06T10:51:54;4.20;;;2.10;;
2874;SDS011;1445;52.600;13.328;2023-04-06T10:54:21;2.53;;;1.88;;
2874;SDS011;1445;52.600;13.328;2023-04-06T10:56:49;3.85;;;2.13;;
2874;SDS011;1445;52.600;13.328;2023-04-06T10:59:19;3.03;;;2.15;;
2874;SDS011;1445;52.600;13.328;2023-04-06T11:01:48;2.72;;;1.95;;
2874;SDS011;1445;52.600;13.328;2023-04-06T11:04:17;4.13;;;2.10;;
2874;SDS011;1445;52.600;13.328;2023-04-06T11:06:46;3.17;;;2.03;;
2874;SDS011;1445;52.600;13.328;2023-04-06T11:09:27;2.38;;;2.03;;
2874;SDS011;1445;52.600;13.328;2023-04-06T11:11:54;3.05;;;2.20;;
2874;SDS011;1445;52.600;13.328;2023-04-06T11:14:21;2.72;;;1.95;;
2874;SDS011;1445;52.600;13.328;2023-04-06T11:16:47;3.65;;;2.08;;
2874;SDS011;1445;52.600;13.328;2023-04-06T11:19:15;3.05;;;2.00;;
2874;SDS011;1445;52.600;13.328;2023-04-06T11:29:37;2.95;;;2.17;;
2874;SDS011;1445;52.600;13.328;2023-04-06T11:32:04;2.83;;;2.08;;
2874;SDS011;1445;52.600;13.328;2023-04-06T11:34:32;2.40;;;1.92;;
2874;SDS011;1445;52.600;13.328;2023-04-06T11:37:00;2.95;;;2.00;;
2874;SDS011;1445;52.600;13.328;2023-04-06T11:39:27;2.55;;;1.95;;
2874;SDS011;1445;52.600;13.328;2023-04-06T11:41:54;3.03;;;2.00;;
2874;SDS011;1445;52.600;13.328;2023-04-06T11:44:29;2.80;;;2.08;;
2874;SDS011;1445;52.600;13.328;2023-04-06T11:46:57;2.75;;;1.80;;
2874;SDS011;1445;52.600;13.328;2023-04-06T11:49:30;2.88;;;2.30;;
2874;SDS011;1445;52.600;13.328;2023-04-06T11:51:57;2.22;;;2.03;;
2874;SDS011;1445;52.600;13.328;2023-04-06T11:54:30;2.70;;;2.28;;
2874;SDS011;1445;52.600;13.328;2023-04-06T11:56:56;2.50;;;1.90;;
2874;SDS011;1445;52.600;13.328;2023-04-06T11:59:21;3.30;;;2.25;;
2874;SDS011;1445;52.600;13.328;2023-04-06T12:01:47;3.42;;;2.50;;
2874;SDS011;1445;52.600;13.328;2023-04-06T12:04:13;3.25;;;2.10;;
2874;SDS011;1445;52.600;13.328;2023-04-06T12:06:39;3.13;;;2.42;;
2874;SDS011;1445;52.600;13.328;2023-04-06T12:09:05;3.33;;;2.10;;
2874;SDS011;1445;52.600;13.328;2023-04-06T12:11:30;3.28;;;2.35;;
2874;SDS011;1445;52.600;13.328;2023-04-06T12:13:56;4.35;;;2.10;;
2874;SDS011;1445;52.600;13.328;2023-04-06T12:16:21;4.13;;;2.17;;
2874;SDS011;1445;52.600;13.328;2023-04-06T12:18:46;2.90;;;2.20;;
2874;SDS011;1445;52.600;13.328;2023-04-06T12:21:12;3.38;;;2.47;;
2874;SDS011;1445;52.600;13.328;2023-04-06T12:23:37;5.30;;;2.30;;
2874;SDS011;1445;52.600;13.328;2023-04-06T12:26:03;2.78;;;2.20;;
2874;SDS011;1445;52.600;13.328;2023-04-06T12:28:28;3.15;;;2.03;;
2874;SDS011;1445;52.600;13.328;2023-04-06T12:30:54;2.40;;;2.10;;
2874;SDS011;1445;52.600;13.328;2023-04-06T12:33:20;2.58;;;2.08;;
2874;SDS011;1445;52.600;13.328;2023-04-06T12:35:46;2.65;;;2.00;;
2874;SDS011;1445;52.600;13.328;2023-04-06T12:38:11;3.33;;;2.00;;
2874;SDS011;1445;52.600;13.328;2023-04-06T12:40:37;3.75;;;2.03;;
2874;SDS011;1445;52.600;13.328;2023-04-06T12:43:03;4.22;;;2.17;;
2874;SDS011;1445;52.600;13.328;2023-04-06T12:45:30;4.78;;;2.45;;
2874;SDS011;1445;52.600;13.328;2023-04-06T12:47:56;2.97;;;2.00;;
2874;SDS011;1445;52.600;13.328;2023-04-06T12:50:21;2.58;;;1.85;;
2874;SDS011;1445;52.600;13.328;2023-04-06T12:52:47;3.08;;;1.98;;
2874;SDS011;1445;52.600;13.328;2023-04-06T12:55:12;4.10;;;2.10;;
2874;SDS011;1445;52.600;13.328;2023-04-06T12:57:38;3.38;;;2.17;;
2874;SDS011;1445;52.600;13.328;2023-04-06T13:00:04;2.92;;;1.85;;
2874;SDS011;1445;52.600;13.328;2023-04-06T13:02:30;3.47;;;1.60;;
2874;SDS011;1445;52.600;13.328;2023-04-06T13:04:55;3.95;;;2.00;;
2874;SDS011;1445;52.600;13.328;2023-04-06T13:07:21;3.33;;;1.98;;
2874;SDS011;1445;52.600;13.328;2023-04-06T13:09:47;2.92;;;1.88;;
2874;SDS011;1445;52.600;13.328;2023-04-06T13:12:14;3.10;;;1.90;;
2874;SDS011;1445;52.600;13.328;2023-04-06T13:14:40;3.05;;;1.80;;
2874;SDS011;1445;52.600;13.328;2023-04-06T13:17:06;3.13;;;2.10;;
2874;SDS011;1445;52.600;13.328;2023-04-06T13:19:32;3.55;;;2.60;;
2874;SDS011;1445;52.600;13.328;2023-04-06T13:21:57;3.22;;;2.40;;
2874;SDS011;1445;52.600;13.328;2023-04-06T13:24:23;2.83;;;2.30;;
2874;SDS011;1445;52.600;13.328;2023-04-06T13:26:49;2.55;;;1.77;;
2874;SDS011;1445;52.600;13.328;2023-04-06T13:29:14;3.83;;;2.50;;
2874;SDS011;1445;52.600;13.328;2023-04-06T13:31:40;3.15;;;2.17;;
2874;SDS011;1445;52.600;13.328;2023-04-06T13:34:05;3.00;;;2.30;;
2874;SDS011;1445;52.600;13.328;2023-04-06T13:36:31;2.92;;;2.10;;
2874;SDS011;1445;52.600;13.328;2023-04-06T13:38:57;2.05;;;1.80;;
2874;SDS011;1445;52.600;13.328;2023-04-06T13:41:23;2.15;;;1.90;;
2874;SDS011;1445;52.600;13.328;2023-04-06T13:43:51;2.55;;;2.03;;
2874;SDS011;1445;52.600;13.328;2023-04-06T13:46:17;3.47;;;1.85;;
2874;SDS011;1445;52.600;13.328;2023-04-06T13:48:42;2.63;;;1.88;;
2874;SDS011;1445;52.600;13.328;2023-04-06T13:51:09;3.08;;;1.77;;
2874;SDS011;1445;52.600;13.328;2023-04-06T13:53:35;2.50;;;1.98;;
2874;SDS011;1445;52.600;13.328;2023-04-06T13:56:00;2.28;;;1.88;;
2874;SDS011;1445;52.600;13.328;2023-04-06T13:58:26;2.53;;;2.20;;
2874;SDS011;1445;52.600;13.328;2023-04-06T14:00:51;2.83;;;2.15;;
2874;SDS011;1445;52.600;13.328;2023-04-06T14:03:17;2.95;;;2.33;;
2874;SDS011;1445;52.600;13.328;2023-04-06T14:05:44;3.70;;;2.60;;
2874;SDS011;1445;52.600;13.328;2023-04-06T14:08:10;3.35;;;2.40;;
2874;SDS011;1445;52.600;13.328;2023-04-06T14:10:39;3.88;;;2.47;;
2874;SDS011;1445;52.600;13.328;2023-04-06T14:13:06;2.90;;;2.10;;
2874;SDS011;1445;52.600;13.328;2023-04-06T14:15:32;4.05;;;2.30;;
2874;SDS011;1445;52.600;13.328;2023-04-06T14:17:58;3.40;;;2.40;;
2874;SDS011;1445;52.600;13.328;2023-04-06T14:20:25;4.97;;;2.63;;
2874;SDS011;1445;52.600;13.328;2023-04-06T14:22:51;4.47;;;2.58;;
2874;SDS011;1445;52.600;13.328;2023-04-06T14:25:17;3.80;;;2.50;;
2874;SDS011;1445;52.600;13.328;2023-04-06T14:27:43;4.15;;;2.42;;
2874;SDS011;1445;52.600;13.328;2023-04-06T14:30:09;3.35;;;2.33;;
2874;SDS011;1445;52.600;13.328;2023-04-06T14:32:35;2.60;;;2.10;;
2874;SDS011;1445;52.600;13.328;2023-04-06T14:35:02;2.20;;;2.00;;
2874;SDS011;1445;52.600;13.328;2023-04-06T14:37:28;3.60;;;2.33;;
2874;SDS011;1445;52.600;13.328;2023-04-06T14:39:54;2.95;;;2.47;;
2874;SDS011;1445;52.600;13.328;2023-04-06T14:42:19;3.13;;;2.50;;
2874;SDS011;1445;52.600;13.328;2023-04-06T14:44:45;5.28;;;2.42;;
2874;SDS011;1445;52.600;13.328;2023-04-06T14:47:10;4.07;;;2.28;;
2874;SDS011;1445;52.600;13.328;2023-04-06T14:49:36;4.25;;;2.63;;
2874;SDS011;1445;52.600;13.328;2023-04-06T14:52:01;2.67;;;2.40;;
2874;SDS011;1445;52.600;13.328;2023-04-06T14:54:27;3.80;;;2.17;;
2874;SDS011;1445;52.600;13.328;2023-04-06T14:56:52;2.25;;;1.77;;
2874;SDS011;1445;52.600;13.328;2023-04-06T14:59:18;2.80;;;2.10;;
2874;SDS011;1445;52.600;13.328;2023-04-06T15:01:43;3.08;;;2.30;;
2874;SDS011;1445;52.600;13.328;2023-04-06T15:04:08;2.58;;;2.30;;